KHIO/HIO METAR and TAF weather

Enter ICAO airport designator
Station Type Date Time Source
KHIO METAR 2020/04/03 21:53 UTC NOAA

KHIO 032153Z VRB05KT 10SM BKN034 OVC060 09/01 A3008 RMK AO2 SLP190 T00940011


Station Type Date Time Source
KHIO Decoded METAR 2020/04/03 21:53 UTC NOAA

PORTLAND-HILLSBORO AIRPORT, OR, United States (KHIO) 45-33N 122-57W 68M
Apr 03, 2020 - 05:53 PM EDT / 2020.04.03 2153 UTC
Wind: Variable at 6 MPH (5 KT):0
Visibility: 10 mile(s):0
Sky conditions: overcast
Temperature: 48.9 F (9.4 C)
Dew Point: 34.0 F (1.1 C)
Relative Humidity: 56%
Pressure (altimeter): 30.08 in. Hg (1018 hPa)
ob: KHIO 032153Z VRB05KT 10SM BKN034 OVC060 09/01 A3008 RMK AO2 SLP190 T00940011
cycle: 22

Station Type Date Time Source
KHIO TAF 2020/04/03 18:28 UTC NOAA

TAF KHIO 031726Z 0318/0418 VRB02KT P6SM VCSH SCT005 SCT025 BKN060
FM031900 22005KT P6SM VCSH SCT030 BKN060
FM040000 28004KT P6SM SCT030 BKN060
FM040800 00000KT P6SM SCT060 BKN120
FM041700 VRB03KT P6SM -RADZ SCT020 OVC040

Example: see airport list